createdAt,value
2022-11-03T00:03:37.702Z,14.10
2022-11-03T00:08:42.872Z,12.40
2022-11-03T00:13:46.186Z,12.93
2022-11-03T00:18:49.473Z,12.15
2022-11-03T00:23:55.593Z,12.32
2022-11-03T00:29:01.752Z,11.80
2022-11-03T00:34:06.381Z,12.13
2022-11-03T00:39:10.745Z,11.30
2022-11-03T00:44:14.845Z,11.48
2022-11-03T00:49:18.469Z,12.25
2022-11-03T00:54:21.912Z,11.50
2022-11-03T00:59:27.459Z,12.35
2022-11-03T01:04:30.857Z,11.68
2022-11-03T01:09:37.419Z,11.23
2022-11-03T01:14:44.974Z,10.70
2022-11-03T01:19:48.879Z,11.48
2022-11-03T01:24:53.948Z,10.98
2022-11-03T01:29:57.851Z,10.77
2022-11-03T01:35:01.398Z,10.48
2022-11-03T01:40:07.712Z,11.23
2022-11-03T01:45:11.129Z,10.23
2022-11-03T01:55:27.498Z,10.50
2022-11-03T02:00:30.856Z,10.73
2022-11-03T02:05:34.452Z,9.30
2022-11-03T02:10:39.523Z,9.68
2022-11-03T02:15:45.555Z,9.00
2022-11-03T02:20:58.007Z,10.25
2022-11-03T02:26:02.012Z,10.52
2022-11-03T02:31:16.235Z,10.18
2022-11-03T02:36:31.089Z,9.00
2022-11-03T02:41:37.783Z,9.48
2022-11-03T02:46:47.158Z,9.50
2022-11-03T02:52:03.340Z,8.75
2022-11-03T02:57:14.433Z,9.75
2022-11-03T03:02:24.541Z,8.88
2022-11-03T03:07:33.616Z,9.18
2022-11-03T03:12:41.065Z,9.98
2022-11-03T03:17:52.674Z,9.05
2022-11-03T03:23:18.345Z,8.77
2022-11-03T03:28:35.132Z,9.32
2022-11-03T03:33:43.557Z,9.18
2022-11-03T03:38:59.041Z,8.68
2022-11-03T03:44:06.497Z,8.77
2022-11-03T03:49:09.974Z,8.02
2022-11-03T03:54:13.297Z,8.55
2022-11-03T03:59:17.089Z,9.57
2022-11-03T04:04:20.434Z,8.65
2022-11-03T04:09:23.837Z,9.10
2022-11-03T04:14:27.157Z,9.25
2022-11-03T04:19:30.474Z,8.75
2022-11-03T04:24:34.095Z,8.82
2022-11-03T04:29:37.632Z,9.10
2022-11-03T04:34:42.179Z,8.55
2022-11-03T04:39:45.987Z,9.57
2022-11-03T04:44:50.372Z,12.23
2022-11-03T04:49:55.957Z,8.80
2022-11-03T04:55:00.117Z,8.45
2022-11-03T05:00:04.291Z,9.15
2022-11-03T05:05:26.890Z,7.93
2022-11-03T05:15:42.389Z,7.82
2022-11-03T05:20:55.655Z,9.80
2022-11-03T05:25:59.595Z,8.80
2022-11-03T05:31:15.373Z,8.73
2022-11-03T05:36:24.593Z,8.23
2022-11-03T05:41:30.595Z,8.20
2022-11-03T05:46:35.448Z,7.45
2022-11-03T05:51:41.430Z,7.43
2022-11-03T05:56:45.995Z,7.70
2022-11-03T06:01:49.930Z,6.18
2022-11-03T06:06:55.946Z,8.95
2022-11-03T06:12:02.697Z,6.75
2022-11-03T06:22:41.633Z,6.18
2022-11-03T06:27:47.595Z,6.47
2022-11-03T06:32:51.691Z,7.10
2022-11-03T06:37:57.784Z,6.70
2022-11-03T06:43:26.384Z,7.30
2022-11-03T06:48:33.692Z,7.22
2022-11-03T06:53:37.008Z,6.80
2022-11-03T06:58:41.311Z,6.20
2022-11-03T07:03:44.844Z,6.95
2022-11-03T07:08:51.889Z,7.22
2022-11-03T07:14:03.048Z,6.88
2022-11-03T07:19:23.884Z,9.60
2022-11-03T07:24:46.254Z,7.65
2022-11-03T07:29:51.310Z,9.20
2022-11-03T07:35:07.380Z,6.20
2022-11-03T07:40:18.450Z,6.10
2022-11-03T07:45:37.028Z,6.13
2022-11-03T07:50:40.591Z,7.65
2022-11-03T07:55:46.415Z,8.20
2022-11-03T08:00:50.787Z,6.40
2022-11-03T08:05:56.422Z,6.60
2022-11-03T08:10:59.744Z,8.20
2022-11-03T08:16:03.396Z,7.18
2022-11-03T08:21:06.798Z,6.90
2022-11-03T08:26:16.083Z,10.85
2022-11-03T08:31:22.927Z,6.80
2022-11-03T08:36:26.266Z,6.88
2022-11-03T08:41:30.381Z,6.15
2022-11-03T08:46:35.899Z,5.95
2022-11-03T08:51:44.091Z,6.90
2022-11-03T08:56:47.953Z,6.20
2022-11-03T09:01:51.502Z,7.20
2022-11-03T09:06:57.127Z,7.75
2022-11-03T09:12:00.898Z,6.57
2022-11-03T09:17:04.460Z,5.93
2022-11-03T09:22:07.686Z,8.73
2022-11-03T09:27:11.417Z,7.63
2022-11-03T09:32:17.646Z,7.05
2022-11-03T09:37:28.164Z,8.77
2022-11-03T09:42:32.971Z,7.68
2022-11-03T09:47:42.429Z,6.65
2022-11-03T09:52:51.300Z,6.88
2022-11-03T09:58:01.363Z,6.70
2022-11-03T10:03:05.313Z,6.82
2022-11-03T10:08:24.570Z,5.97
2022-11-03T10:13:36.781Z,5.72
2022-11-03T10:18:40.136Z,7.25
2022-11-03T10:23:44.064Z,6.63
2022-11-03T10:29:06.886Z,6.28
2022-11-03T10:34:36.237Z,6.65
2022-11-03T10:39:39.653Z,6.40
2022-11-03T10:44:42.929Z,7.43
2022-11-03T10:49:46.169Z,6.50
2022-11-03T10:54:53.189Z,6.88
2022-11-03T10:59:56.597Z,6.47
2022-11-03T11:05:02.373Z,6.63
2022-11-03T11:10:16.852Z,6.50
2022-11-03T11:15:43.200Z,7.50
2022-11-03T11:20:46.668Z,6.93
2022-11-03T11:26:13.786Z,6.32
2022-11-03T11:31:23.155Z,7.93
2022-11-03T11:36:26.822Z,6.68
2022-11-03T11:42:07.423Z,6.68
2022-11-03T11:47:26.340Z,6.60
2022-11-03T11:52:31.201Z,6.80
2022-11-03T11:57:35.663Z,6.50
2022-11-03T12:02:39.087Z,7.35
2022-11-03T12:07:42.667Z,6.47
2022-11-03T12:12:46.684Z,5.78
2022-11-03T12:17:50.157Z,6.95
2022-11-03T12:22:53.726Z,6.03
2022-11-03T12:27:57.655Z,5.38
2022-11-03T12:33:00.916Z,6.63
2022-11-03T12:38:04.418Z,6.80
2022-11-03T12:43:07.781Z,5.95
2022-11-03T12:48:11.337Z,7.15
2022-11-03T12:53:14.686Z,6.53
2022-11-03T12:58:17.794Z,6.88
2022-11-03T13:03:20.956Z,6.03
2022-11-03T13:08:24.568Z,6.38
2022-11-03T13:13:28.552Z,6.53
2022-11-03T13:18:32.373Z,7.10
2022-11-03T13:23:39.295Z,6.40
2022-11-03T13:28:42.765Z,7.70
2022-11-03T13:33:46.133Z,6.22
2022-11-03T13:38:49.252Z,6.00
2022-11-03T13:43:52.531Z,6.25
2022-11-03T13:59:42.725Z,6.13
2022-11-03T14:04:46.056Z,6.25
2022-11-03T14:09:49.320Z,5.80
2022-11-03T14:14:52.898Z,6.60
2022-11-03T14:20:02.541Z,5.97
2022-11-03T14:25:08.844Z,6.53
2022-11-03T14:30:12.946Z,6.13
2022-11-03T14:35:18.013Z,6.55
2022-11-03T14:40:21.451Z,6.18
2022-11-03T14:45:24.911Z,5.97
2022-11-03T14:50:28.470Z,6.47
2022-11-03T14:55:31.899Z,5.85
2022-11-03T15:00:40.386Z,6.75
2022-11-03T15:05:43.691Z,5.68
2022-11-03T15:10:47.269Z,6.07
2022-11-03T15:15:50.570Z,7.43
2022-11-03T15:20:55.981Z,6.97
2022-11-03T15:25:59.928Z,6.70
2022-11-03T15:31:03.623Z,6.53
2022-11-03T15:36:08.657Z,6.38
2022-11-03T15:41:15.172Z,6.10
2022-11-03T15:46:20.331Z,6.53
2022-11-03T15:51:24.517Z,6.68
2022-11-03T15:56:28.236Z,6.97
2022-11-03T16:01:32.201Z,7.03
2022-11-03T16:07:01.744Z,7.57
2022-11-03T16:11:59.105Z,8.23
2022-11-03T16:17:03.249Z,7.80
2022-11-03T16:22:06.808Z,7.97
2022-11-03T16:27:10.736Z,6.93
2022-11-03T16:32:17.167Z,7.60
2022-11-03T16:37:21.016Z,6.85
2022-11-03T16:42:24.649Z,7.13
2022-11-03T16:47:28.002Z,8.15
2022-11-03T16:52:31.466Z,7.50
2022-11-03T16:57:35.172Z,7.60
2022-11-03T17:02:39.016Z,8.45
2022-11-03T17:07:42.410Z,7.50
2022-11-03T17:12:45.787Z,8.48
2022-11-03T17:17:49.175Z,8.35
2022-11-03T17:22:52.640Z,9.18
2022-11-03T17:27:59.950Z,8.52
2022-11-03T17:33:08.109Z,8.75
2022-11-03T17:38:17.556Z,8.15
2022-11-03T17:43:25.969Z,8.63
2022-11-03T17:48:29.376Z,8.43
2022-11-03T17:53:34.142Z,8.55
2022-11-03T17:58:43.207Z,8.82
2022-11-03T18:03:49.748Z,8.63
2022-11-03T18:08:53.898Z,9.80
2022-11-03T18:13:57.398Z,9.27
2022-11-03T18:19:00.926Z,8.60
2022-11-03T18:24:11.621Z,8.90
2022-11-03T18:29:14.868Z,9.23
2022-11-03T18:34:26.300Z,9.15
2022-11-03T18:39:29.449Z,8.80
2022-11-03T18:44:32.531Z,8.65
2022-11-03T18:49:36.327Z,10.10
2022-11-03T18:54:44.513Z,8.68
2022-11-03T18:59:48.602Z,9.07
2022-11-03T19:04:52.382Z,8.50
2022-11-03T19:09:55.866Z,9.18
2022-11-03T19:15:05.392Z,10.52
2022-11-03T19:20:15.169Z,9.50
2022-11-03T19:25:18.345Z,9.32
2022-11-03T19:30:21.576Z,9.82
2022-11-03T19:35:35.314Z,9.23
2022-11-03T19:40:39.579Z,9.82
2022-11-03T19:45:43.062Z,10.27
2022-11-03T19:50:46.924Z,10.60
2022-11-03T19:55:50.327Z,11.00
2022-11-03T20:00:55.151Z,10.07
2022-11-03T20:06:00.224Z,10.20
2022-11-03T20:11:05.351Z,9.13
2022-11-03T20:16:16.551Z,10.98
2022-11-03T20:21:20.567Z,11.20
2022-11-03T20:26:25.841Z,12.10
2022-11-03T20:31:29.517Z,12.30
2022-11-03T20:36:33.499Z,9.90
2022-11-03T20:41:36.738Z,11.13
2022-11-03T20:46:40.663Z,9.38
2022-11-03T20:51:46.359Z,9.85
2022-11-03T20:56:49.548Z,10.57
2022-11-03T21:06:57.807Z,9.32
2022-11-03T21:12:01.004Z,9.93
2022-11-03T21:17:04.104Z,10.15
2022-11-03T21:22:54.310Z,9.68
2022-11-03T21:27:58.353Z,9.40
2022-11-03T21:33:01.693Z,11.02
2022-11-03T21:38:05.672Z,11.02
2022-11-03T21:43:11.385Z,10.77
2022-11-03T21:48:15.145Z,11.10
2022-11-03T21:53:18.597Z,9.73
2022-11-03T21:58:21.944Z,10.90
2022-11-03T22:03:25.154Z,11.27
2022-11-03T22:08:28.527Z,11.60
2022-11-03T22:13:31.812Z,10.77
2022-11-03T22:18:35.159Z,11.52
2022-11-03T22:23:38.417Z,11.48
2022-11-03T22:28:41.817Z,11.10
2022-11-03T22:33:45.452Z,10.82
2022-11-03T22:38:49.099Z,10.93
2022-11-03T22:43:52.854Z,11.15
2022-11-03T22:48:56.399Z,10.75
2022-11-03T22:54:00.189Z,10.43
2022-11-03T22:59:04.404Z,10.63
2022-11-03T23:04:08.115Z,10.38
2022-11-03T23:09:11.850Z,10.88
2022-11-03T23:14:15.854Z,10.80
2022-11-03T23:19:19.087Z,12.27
2022-11-03T23:24:23.528Z,11.35
2022-11-03T23:29:28.560Z,11.23
2022-11-03T23:34:39.666Z,10.90
2022-11-03T23:39:43.091Z,11.40
2022-11-03T23:44:47.413Z,11.20
2022-11-03T23:49:51.314Z,10.75
2022-11-03T23:54:55.240Z,11.20
2022-11-03T23:59:58.784Z,10.82
